createdAt,value
2022-09-25T00:02:02.433Z,5.73
2022-09-25T00:07:24.905Z,5.63
2022-09-25T00:12:47.214Z,6.20
2022-09-25T00:18:09.295Z,5.67
2022-09-25T00:23:32.211Z,5.93
2022-09-25T00:28:55.295Z,5.47
2022-09-25T00:34:18.040Z,5.60
2022-09-25T00:39:40.218Z,5.33
2022-09-25T00:45:07.389Z,5.97
2022-09-25T00:50:39.055Z,5.83
2022-09-25T00:56:03.429Z,5.83
2022-09-25T01:01:25.712Z,6.03
2022-09-25T01:06:49.475Z,5.73
2022-09-25T01:12:12.262Z,5.67
2022-09-25T01:17:40.617Z,5.80
2022-09-25T01:23:02.746Z,5.87
2022-09-25T01:28:50.257Z,6.13
2022-09-25T01:34:23.567Z,5.57
2022-09-25T01:39:54.038Z,5.43
2022-09-25T01:45:28.699Z,5.97
2022-09-25T01:50:59.954Z,5.97
2022-09-25T01:56:33.044Z,5.67
2022-09-25T02:01:59.553Z,5.80
2022-09-25T02:07:32.015Z,5.97
2022-09-25T02:12:59.093Z,6.07
2022-09-25T02:18:41.453Z,5.73
2022-09-25T02:24:29.888Z,6.60
2022-09-25T02:29:52.374Z,6.33
2022-09-25T02:35:16.128Z,6.20
2022-09-25T02:40:56.363Z,6.10
2022-09-25T02:46:30.434Z,6.13
2022-09-25T02:52:03.952Z,6.60
2022-09-25T02:57:42.357Z,6.30
2022-09-25T03:03:07.495Z,7.07
2022-09-25T03:08:39.194Z,8.20
2022-09-25T03:14:03.856Z,7.80
2022-09-25T03:19:28.646Z,7.67
2022-09-25T03:24:50.958Z,7.23
2022-09-25T03:30:14.018Z,7.80
2022-09-25T03:35:39.760Z,7.27
2022-09-25T03:41:03.730Z,6.73
2022-09-25T03:46:31.410Z,7.37
2022-09-25T03:51:53.716Z,6.83
2022-09-25T03:57:16.082Z,7.00
2022-09-25T04:02:38.743Z,6.47
2022-09-25T04:08:01.848Z,8.13
2022-09-25T04:13:24.995Z,6.73
2022-09-25T04:18:47.531Z,7.87
2022-09-25T04:24:29.179Z,8.20
2022-09-25T04:29:51.833Z,7.43
2022-09-25T04:35:14.314Z,7.87
2022-09-25T04:40:37.460Z,7.37
2022-09-25T04:46:08.000Z,8.03
2022-09-25T04:51:30.232Z,8.80
2022-09-25T04:56:53.561Z,7.97
2022-09-25T05:02:15.798Z,8.30
2022-09-25T05:07:39.476Z,8.20
2022-09-25T05:13:03.664Z,7.63
2022-09-25T05:18:26.843Z,8.77
2022-09-25T05:23:49.996Z,8.60
2022-09-25T05:29:12.484Z,8.33
2022-09-25T05:34:35.359Z,9.70
2022-09-25T05:39:59.050Z,9.83
2022-09-25T05:45:23.285Z,9.30
2022-09-25T05:50:51.402Z,10.20
2022-09-25T05:56:13.795Z,9.63
2022-09-25T06:01:36.014Z,9.63
2022-09-25T06:07:01.120Z,9.57
2022-09-25T06:12:24.991Z,9.10
2022-09-25T06:17:47.286Z,9.60
2022-09-25T06:23:09.987Z,10.30
2022-09-25T06:28:32.335Z,10.33
2022-09-25T06:33:54.875Z,7.70
2022-09-25T06:39:19.692Z,9.97
2022-09-25T06:44:43.932Z,9.37
2022-09-25T06:50:06.583Z,10.07
2022-09-25T06:55:32.401Z,9.77
2022-09-25T07:00:56.030Z,9.27
2022-09-25T07:06:24.376Z,10.57
2022-09-25T07:11:48.705Z,8.77
2022-09-25T07:17:10.984Z,10.33
2022-09-25T07:22:33.380Z,10.07
2022-09-25T07:27:55.865Z,10.17
2022-09-25T07:33:18.120Z,9.83
2022-09-25T07:38:41.254Z,10.03
2022-09-25T07:44:27.273Z,10.13
2022-09-25T07:49:46.735Z,12.33
2022-09-25T07:55:09.463Z,10.97
2022-09-25T08:00:31.836Z,10.67
2022-09-25T08:06:05.607Z,10.37
2022-09-25T08:11:31.366Z,9.77
2022-09-25T08:16:56.007Z,10.43
2022-09-25T08:22:18.415Z,9.77
2022-09-25T08:27:41.222Z,9.37
2022-09-25T08:33:04.318Z,9.73
2022-09-25T08:38:28.727Z,9.80
2022-09-25T08:44:25.966Z,9.87
2022-09-25T08:50:10.616Z,10.53
2022-09-25T08:55:59.318Z,9.53
2022-09-25T09:01:39.247Z,10.03
2022-09-25T09:07:27.545Z,9.70
2022-09-25T09:12:57.839Z,8.83
2022-09-25T09:18:28.970Z,9.40
2022-09-25T09:24:01.721Z,8.80
2022-09-25T09:29:42.743Z,9.17
2022-09-25T09:35:31.333Z,9.90
2022-09-25T09:41:19.217Z,9.67
2022-09-25T09:47:07.958Z,8.90
2022-09-25T09:52:36.363Z,8.80
2022-09-25T09:58:05.194Z,9.13
2022-09-25T10:03:33.577Z,8.30
2022-09-25T10:08:55.844Z,7.07
2022-09-25T10:14:22.027Z,7.45
2022-09-25T10:19:44.495Z,8.30
2022-09-25T10:25:07.660Z,8.18
2022-09-25T10:30:30.421Z,7.78
2022-09-25T10:35:54.973Z,7.85
2022-09-25T10:41:22.217Z,7.72
2022-09-25T10:47:03.067Z,6.68
2022-09-25T10:52:25.460Z,6.63
2022-09-25T10:57:48.195Z,5.53
2022-09-25T11:03:21.216Z,6.35
2022-09-25T11:08:46.256Z,6.30
2022-09-25T11:14:23.778Z,6.15
2022-09-25T11:19:46.285Z,6.38
2022-09-25T11:25:21.328Z,6.80
2022-09-25T11:30:52.019Z,7.00
2022-09-25T11:36:22.339Z,6.32
2022-09-25T11:42:00.583Z,6.85
2022-09-25T11:47:36.905Z,7.40
2022-09-25T11:53:25.486Z,6.25
2022-09-25T11:58:47.594Z,6.20
2022-09-25T12:04:41.702Z,6.28
2022-09-25T12:10:31.574Z,6.38
2022-09-25T12:16:12.877Z,6.07
2022-09-25T12:21:47.894Z,5.88
2022-09-25T12:27:16.691Z,5.70
2022-09-25T12:33:12.977Z,6.40
2022-09-25T12:38:44.618Z,5.70
2022-09-25T12:44:16.287Z,6.20
2022-09-25T12:49:44.379Z,6.10
2022-09-25T12:55:14.532Z,6.25
2022-09-25T13:00:41.619Z,6.50
2022-09-25T13:06:14.614Z,6.75
2022-09-25T13:11:55.696Z,7.03
2022-09-25T13:17:18.578Z,6.60
2022-09-25T13:22:41.896Z,5.72
2022-09-25T13:28:09.512Z,5.63
2022-09-25T13:33:41.849Z,5.70
2022-09-25T13:39:50.706Z,5.45
2022-09-25T13:45:22.554Z,5.57
2022-09-25T13:50:47.027Z,4.55
2022-09-25T13:56:15.001Z,4.57
2022-09-25T14:01:43.557Z,4.90
2022-09-25T14:07:15.063Z,4.72
2022-09-25T14:12:44.436Z,4.68
2022-09-25T14:18:16.531Z,5.28
2022-09-25T14:23:50.423Z,7.00
2022-09-25T14:29:39.242Z,6.07
2022-09-25T14:35:24.378Z,5.00
2022-09-25T14:41:04.309Z,5.72
2022-09-25T14:46:27.003Z,5.35
2022-09-25T14:51:50.496Z,4.97
2022-09-25T14:57:20.873Z,5.20
2022-09-25T15:02:48.504Z,4.80
2022-09-25T15:08:41.196Z,5.50
2022-09-25T15:14:12.391Z,5.28
2022-09-25T15:19:44.794Z,5.38
2022-09-25T15:25:08.583Z,4.97
2022-09-25T15:30:37.771Z,4.95
2022-09-25T15:36:03.483Z,5.25
2022-09-25T15:41:27.041Z,4.90
2022-09-25T15:46:54.973Z,4.75
2022-09-25T15:52:29.624Z,4.95
2022-09-25T15:57:54.802Z,5.13
2022-09-25T16:03:40.982Z,5.70
2022-09-25T16:09:18.683Z,5.60
2022-09-25T16:14:41.259Z,5.40
2022-09-25T16:20:08.108Z,5.28
2022-09-25T16:25:33.277Z,4.78
2022-09-25T16:31:03.042Z,6.97
2022-09-25T16:36:27.196Z,7.07
2022-09-25T16:41:49.995Z,7.80
2022-09-25T16:47:14.542Z,7.47
2022-09-25T16:52:36.737Z,7.38
2022-09-25T16:57:59.314Z,7.32
2022-09-25T17:03:22.979Z,7.65
2022-09-25T17:08:45.754Z,7.57
2022-09-25T17:14:14.109Z,8.45
2022-09-25T17:19:36.541Z,7.97
2022-09-25T17:25:03.047Z,7.82
2022-09-25T17:30:25.705Z,8.43
2022-09-25T17:35:52.643Z,8.23
2022-09-25T17:41:30.091Z,8.10
2022-09-25T17:46:55.816Z,8.32
2022-09-25T17:52:22.792Z,7.97
2022-09-25T17:57:45.529Z,8.00
2022-09-25T18:03:08.813Z,8.17
2022-09-25T18:08:34.954Z,8.17
2022-09-25T18:14:03.065Z,8.80
2022-09-25T18:19:43.557Z,8.20
2022-09-25T18:25:07.852Z,8.80
2022-09-25T18:30:33.237Z,7.60
2022-09-25T18:35:57.558Z,7.63
2022-09-25T18:41:27.896Z,8.23
2022-09-25T18:47:00.842Z,9.87
2022-09-25T18:52:25.877Z,11.37
2022-09-25T18:57:50.173Z,11.17
2022-09-25T19:03:16.664Z,8.80
2022-09-25T19:08:42.340Z,8.20
2022-09-25T19:14:07.823Z,7.63
2022-09-25T19:19:33.145Z,7.63
2022-09-25T19:24:57.193Z,6.33
2022-09-25T19:30:23.045Z,6.80
2022-09-25T19:35:46.708Z,7.27
2022-09-25T19:41:18.798Z,6.20
2022-09-25T19:46:46.094Z,6.10
2022-09-25T19:52:11.375Z,5.70
2022-09-25T19:57:33.815Z,6.13
2022-09-25T20:03:00.938Z,5.60
2022-09-25T20:08:23.114Z,5.50
2022-09-25T20:13:48.787Z,5.43
2022-09-25T20:19:11.697Z,5.30
2022-09-25T20:24:35.128Z,5.60
2022-09-25T20:29:58.264Z,4.60
2022-09-25T20:35:21.152Z,5.30
2022-09-25T20:40:43.318Z,5.03
2022-09-25T20:46:12.725Z,5.20
2022-09-25T20:51:35.528Z,4.70
2022-09-25T20:56:58.152Z,4.90
2022-09-25T21:02:20.662Z,4.87
2022-09-25T21:07:43.200Z,4.60
2022-09-25T21:13:06.386Z,4.30
2022-09-25T21:18:28.476Z,4.87
2022-09-25T21:23:54.253Z,4.63
2022-09-25T21:29:18.743Z,4.33
2022-09-25T21:34:41.225Z,5.07
2022-09-25T21:40:05.716Z,4.90
2022-09-25T21:45:28.231Z,5.70
2022-09-25T21:50:54.370Z,5.37
2022-09-25T21:56:21.027Z,5.40
2022-09-25T22:01:43.407Z,5.23
2022-09-25T22:07:05.627Z,5.63
2022-09-25T22:12:28.235Z,4.93
2022-09-25T22:17:50.414Z,5.60
2022-09-25T22:23:12.708Z,5.60
2022-09-25T22:28:35.606Z,5.30
2022-09-25T22:34:00.447Z,5.33
2022-09-25T22:39:22.879Z,5.10
2022-09-25T22:44:45.427Z,4.60
2022-09-25T22:50:08.224Z,5.43
2022-09-25T22:55:31.211Z,5.37
2022-09-25T23:00:53.532Z,5.50
2022-09-25T23:06:15.926Z,5.27
2022-09-25T23:11:38.919Z,5.40
2022-09-25T23:17:01.636Z,5.07
2022-09-25T23:22:24.055Z,4.60
2022-09-25T23:27:46.261Z,4.73
2022-09-25T23:33:08.564Z,4.33
2022-09-25T23:38:31.017Z,4.33
2022-09-25T23:43:55.082Z,3.77
2022-09-25T23:49:17.599Z,3.80
2022-09-25T23:54:40.170Z,4.07
